createdAt,value
2023-01-28T00:01:31.968Z,21.23
2023-01-28T00:03:35.163Z,21.58
2023-01-28T00:05:37.324Z,20.85
2023-01-28T00:07:39.968Z,20.58
2023-01-28T00:09:42.165Z,20.52
2023-01-28T00:11:44.501Z,20.58
2023-01-28T00:13:46.705Z,21.45
2023-01-28T00:15:56.017Z,21.45
2023-01-28T00:17:58.181Z,19.30
2023-01-28T00:20:00.311Z,21.27
2023-01-28T00:22:02.635Z,21.20
2023-01-28T00:24:06.996Z,20.40
2023-01-28T00:26:11.353Z,20.45
2023-01-28T00:28:13.508Z,20.42
2023-01-28T00:30:15.675Z,20.45
2023-01-28T00:32:17.849Z,21.27
2023-01-28T00:34:20.143Z,20.92
2023-01-28T00:36:23.082Z,20.25
2023-01-28T00:38:25.236Z,21.63
2023-01-28T00:40:27.466Z,20.98
2023-01-28T00:42:29.565Z,20.80
2023-01-28T00:44:31.744Z,21.58
2023-01-28T00:46:33.887Z,21.73
2023-01-28T00:48:36.644Z,21.52
2023-01-28T00:50:39.455Z,21.15
2023-01-28T00:52:41.856Z,20.95
2023-01-28T00:54:44.171Z,20.80
2023-01-28T00:56:46.327Z,21.48
2023-01-28T00:58:48.690Z,21.20
2023-01-28T01:00:51.423Z,20.42
2023-01-28T01:02:53.870Z,21.67
2023-01-28T01:07:01.132Z,20.95
2023-01-28T01:09:03.987Z,19.88
2023-01-28T01:11:06.814Z,19.88
2023-01-28T01:13:10.159Z,20.45
2023-01-28T01:15:12.852Z,20.40
2023-01-28T01:17:15.085Z,20.95
2023-01-28T01:19:17.208Z,21.27
2023-01-28T01:21:21.465Z,20.98
2023-01-28T01:23:23.603Z,20.83
2023-01-28T01:25:25.771Z,21.20
2023-01-28T01:27:27.900Z,21.23
2023-01-28T01:29:30.065Z,21.52
2023-01-28T01:31:32.282Z,20.83
2023-01-28T01:33:34.699Z,20.17
2023-01-28T01:37:38.959Z,15.30
2023-01-28T01:39:41.123Z,21.30
2023-01-28T01:41:43.311Z,19.95
2023-01-28T01:44:05.762Z,20.10
2023-01-28T01:46:08.006Z,18.58
2023-01-28T01:48:21.780Z,19.98
2023-01-28T01:50:23.969Z,20.92
2023-01-28T01:52:29.202Z,21.55
2023-01-28T01:54:32.769Z,20.10
2023-01-28T01:56:38.744Z,20.73
2023-01-28T01:58:42.651Z,19.98
2023-01-28T02:00:44.897Z,21.55
2023-01-28T02:02:48.160Z,20.50
2023-01-28T02:04:50.341Z,19.92
2023-01-28T02:06:52.926Z,19.80
2023-01-28T02:08:56.478Z,20.48
2023-01-28T02:11:03.537Z,20.67
2023-01-28T02:13:05.688Z,20.15
2023-01-28T02:15:13.123Z,19.45
2023-01-28T02:17:15.714Z,18.70
2023-01-28T02:21:22.948Z,20.73
2023-01-28T02:23:25.069Z,19.55
2023-01-28T02:25:34.931Z,19.58
2023-01-28T02:27:49.130Z,19.08
2023-01-28T02:29:56.616Z,20.35
2023-01-28T02:32:06.543Z,20.45
2023-01-28T02:34:18.913Z,19.65
2023-01-28T02:36:39.798Z,19.88
2023-01-28T02:38:44.412Z,19.27
2023-01-28T02:41:05.897Z,20.50
2023-01-28T02:43:08.136Z,19.67
2023-01-28T02:45:17.242Z,19.27
2023-01-28T02:47:38.373Z,20.40
2023-01-28T02:49:45.651Z,20.88
2023-01-28T02:52:01.085Z,20.33
2023-01-28T02:54:26.088Z,20.98
2023-01-28T02:56:31.268Z,20.08
2023-01-28T02:58:38.309Z,19.73
2023-01-28T03:00:45.201Z,20.67
2023-01-28T03:02:54.284Z,21.00
2023-01-28T03:05:06.506Z,19.88
2023-01-28T03:07:10.737Z,20.02
2023-01-28T03:09:27.356Z,21.58
2023-01-28T03:11:49.807Z,20.00
2023-01-28T03:14:10.668Z,15.40
2023-01-28T03:16:32.669Z,20.17
2023-01-28T03:18:56.263Z,19.83
2023-01-28T03:21:17.366Z,19.42
2023-01-28T03:23:41.335Z,20.20
2023-01-28T03:26:03.905Z,19.10
2023-01-28T03:28:27.981Z,18.23
2023-01-28T03:30:53.961Z,18.92
2023-01-28T03:33:15.425Z,19.67
2023-01-28T03:35:36.924Z,19.92
2023-01-28T03:37:39.186Z,19.40
2023-01-28T03:39:41.370Z,20.30
2023-01-28T03:41:43.806Z,19.98
2023-01-28T03:43:45.980Z,20.40
2023-01-28T03:45:51.423Z,20.73
2023-01-28T03:47:53.676Z,19.73
2023-01-28T03:49:56.826Z,20.15
2023-01-28T03:51:59.226Z,19.20
2023-01-28T03:54:02.257Z,20.48
2023-01-28T03:56:04.537Z,19.67
2023-01-28T03:58:07.951Z,19.08
2023-01-28T04:00:10.951Z,19.80
2023-01-28T04:02:13.645Z,20.02
2023-01-28T04:04:22.983Z,19.48
2023-01-28T04:06:25.176Z,20.83
2023-01-28T04:08:27.486Z,21.33
2023-01-28T04:10:29.720Z,20.55
2023-01-28T04:12:31.991Z,20.30
2023-01-28T04:14:34.612Z,19.98
2023-01-28T04:16:36.842Z,20.20
2023-01-28T04:18:39.111Z,20.70
2023-01-28T04:20:41.327Z,20.83
2023-01-28T04:22:43.663Z,19.88
2023-01-28T04:24:45.850Z,20.90
2023-01-28T04:26:48.116Z,20.85
2023-01-28T04:28:50.283Z,21.92
2023-01-28T04:30:52.947Z,19.02
2023-01-28T04:32:55.773Z,19.85
2023-01-28T04:34:57.999Z,19.58
2023-01-28T04:37:00.126Z,20.73
2023-01-28T04:39:02.344Z,20.15
2023-01-28T04:41:04.470Z,20.23
2023-01-28T04:43:06.702Z,20.75
2023-01-28T04:45:09.129Z,19.35
2023-01-28T04:47:11.292Z,19.17
2023-01-28T04:49:13.512Z,19.60
2023-01-28T04:51:15.784Z,18.50
2023-01-28T04:53:17.985Z,18.65
2023-01-28T04:55:20.214Z,19.80
2023-01-28T04:57:22.518Z,18.75
2023-01-28T04:59:24.875Z,18.75
2023-01-28T05:01:27.075Z,19.50
2023-01-28T05:03:29.368Z,18.65
2023-01-28T05:05:31.573Z,19.00
2023-01-28T05:07:33.742Z,19.40
2023-01-28T05:09:36.843Z,20.20
2023-01-28T05:11:39.418Z,18.95
2023-01-28T05:13:41.643Z,20.75
2023-01-28T05:15:43.885Z,18.60
2023-01-28T05:17:46.197Z,20.25
2023-01-28T05:19:48.347Z,20.35
2023-01-28T05:21:50.472Z,19.05
2023-01-28T05:23:52.688Z,20.35
2023-01-28T05:25:54.895Z,19.60
2023-01-28T05:27:57.064Z,20.92
2023-01-28T05:29:59.572Z,20.08
2023-01-28T05:34:03.784Z,19.83
2023-01-28T05:36:06.139Z,20.42
2023-01-28T05:38:08.304Z,20.77
2023-01-28T05:40:10.823Z,20.08
2023-01-28T05:44:15.218Z,20.00
2023-01-28T05:46:17.351Z,20.08
2023-01-28T05:48:19.557Z,19.38
2023-01-28T05:50:21.763Z,20.48
2023-01-28T05:52:24.047Z,21.15
2023-01-28T05:54:26.209Z,20.45
2023-01-28T05:56:28.471Z,21.60
2023-01-28T05:58:32.163Z,20.40
2023-01-28T06:00:34.333Z,20.13
2023-01-28T06:02:36.563Z,20.10
2023-01-28T06:04:39.265Z,21.20
2023-01-28T06:06:41.445Z,20.92
2023-01-28T06:08:43.649Z,20.30
2023-01-28T06:10:46.773Z,20.48
2023-01-28T06:12:48.983Z,20.48
2023-01-28T06:14:51.323Z,21.08
2023-01-28T06:16:53.695Z,21.13
2023-01-28T06:18:55.883Z,20.00
2023-01-28T06:20:58.057Z,20.50
2023-01-28T06:23:00.250Z,21.00
2023-01-28T06:25:02.371Z,20.98
2023-01-28T06:27:04.537Z,20.70
2023-01-28T06:29:06.714Z,19.92
2023-01-28T06:31:08.862Z,20.05
2023-01-28T06:33:11.029Z,19.42
2023-01-28T06:35:13.199Z,19.88
2023-01-28T06:37:15.741Z,19.73
2023-01-28T06:41:19.947Z,18.80
2023-01-28T06:43:27.605Z,21.48
2023-01-28T06:45:29.804Z,18.98
2023-01-28T06:47:31.935Z,19.75
2023-01-28T06:49:34.107Z,19.35
2023-01-28T06:51:36.276Z,19.65
2023-01-28T06:53:38.426Z,19.50
2023-01-28T06:55:40.561Z,19.38
2023-01-28T06:57:45.223Z,18.70
2023-01-28T06:59:47.401Z,18.30
2023-01-28T07:01:49.604Z,17.00
2023-01-28T07:03:51.793Z,18.30
2023-01-28T07:05:53.925Z,19.83
2023-01-28T07:07:56.215Z,17.95
2023-01-28T07:09:58.430Z,18.48
2023-01-28T07:12:00.578Z,19.15
2023-01-28T07:14:02.724Z,18.85
2023-01-28T07:16:05.002Z,19.65
2023-01-28T07:18:07.210Z,18.70
2023-01-28T07:20:11.471Z,19.27
2023-01-28T07:22:13.575Z,17.77
2023-01-28T07:24:15.790Z,18.13
2023-01-28T07:26:20.015Z,18.88
2023-01-28T07:28:22.297Z,18.45
2023-01-28T07:30:24.523Z,19.92
2023-01-28T07:32:27.508Z,20.13
2023-01-28T07:34:29.675Z,18.67
2023-01-28T07:36:31.802Z,21.00
2023-01-28T07:38:33.954Z,18.25
2023-01-28T07:40:36.112Z,18.13
2023-01-28T07:42:39.024Z,18.85
2023-01-28T07:44:41.244Z,19.38
2023-01-28T07:46:43.408Z,18.88
2023-01-28T07:48:45.786Z,19.00
2023-01-28T07:50:49.660Z,19.17
2023-01-28T07:52:51.854Z,20.08
2023-01-28T07:54:54.257Z,21.58
2023-01-28T07:56:56.387Z,20.45
2023-01-28T07:58:58.623Z,19.45
2023-01-28T08:01:01.089Z,20.42
2023-01-28T08:05:05.681Z,18.90
2023-01-28T08:09:10.880Z,19.08
2023-01-28T08:13:16.261Z,18.60
2023-01-28T08:15:19.327Z,18.40
2023-01-28T08:17:21.513Z,18.95
2023-01-28T08:19:23.744Z,19.33
2023-01-28T08:21:25.882Z,18.52
2023-01-28T08:23:28.793Z,19.77
2023-01-28T08:25:30.948Z,18.67
2023-01-28T08:27:33.137Z,18.35
2023-01-28T08:29:35.321Z,18.75
2023-01-28T08:31:37.529Z,18.88
2023-01-28T08:33:39.739Z,17.67
2023-01-28T08:35:42.073Z,20.83
2023-01-28T08:37:44.223Z,19.45
2023-01-28T08:39:46.767Z,19.40
2023-01-28T08:43:51.021Z,19.80
2023-01-28T08:45:53.183Z,20.85
2023-01-28T08:48:02.985Z,19.70
2023-01-28T08:50:05.303Z,19.38
2023-01-28T08:52:07.472Z,18.60
2023-01-28T08:54:09.626Z,19.20
2023-01-28T08:56:11.808Z,18.60
2023-01-28T08:58:15.104Z,18.55
2023-01-28T09:00:17.779Z,19.15
2023-01-28T09:02:31.080Z,18.55
2023-01-28T09:04:34.293Z,19.30
2023-01-28T09:06:36.445Z,17.95
2023-01-28T09:08:38.659Z,19.38
2023-01-28T09:10:42.072Z,19.55
2023-01-28T09:12:44.689Z,17.23
2023-01-28T09:14:46.863Z,18.73
2023-01-28T09:16:49.032Z,19.38
2023-01-28T09:18:51.781Z,20.33
2023-01-28T09:20:53.924Z,19.13
2023-01-28T09:22:56.106Z,19.17
2023-01-28T09:24:58.279Z,20.15
2023-01-28T09:27:00.524Z,19.15
2023-01-28T09:29:02.735Z,18.23
2023-01-28T09:31:06.314Z,17.50
2023-01-28T09:33:08.841Z,19.58
2023-01-28T09:35:11.918Z,19.98
2023-01-28T09:37:14.784Z,18.27
2023-01-28T09:39:16.959Z,18.20
2023-01-28T09:41:24.982Z,18.05
2023-01-28T09:43:27.650Z,18.30
2023-01-28T09:45:32.636Z,18.10
2023-01-28T09:47:36.619Z,18.05
2023-01-28T09:49:44.730Z,18.02
2023-01-28T09:51:49.419Z,18.52
2023-01-28T09:53:53.944Z,18.73
2023-01-28T09:55:57.897Z,17.90
2023-01-28T09:58:00.425Z,16.85
2023-01-28T10:02:16.341Z,17.23
2023-01-28T10:04:24.284Z,16.60
2023-01-28T10:06:41.729Z,16.90
2023-01-28T10:09:01.729Z,16.83
2023-01-28T10:11:11.704Z,17.58
2023-01-28T10:13:23.693Z,18.90
2023-01-28T10:15:28.460Z,17.08
2023-01-28T10:17:40.307Z,17.65
2023-01-28T10:19:51.290Z,17.10
2023-01-28T10:21:53.450Z,17.65
2023-01-28T10:23:55.587Z,16.60
2023-01-28T10:25:59.309Z,17.10
2023-01-28T10:28:02.244Z,17.13
2023-01-28T10:30:25.514Z,17.83
2023-01-28T10:32:34.904Z,17.40
2023-01-28T10:34:38.008Z,16.95
2023-01-28T10:36:40.276Z,15.23
2023-01-28T10:38:42.425Z,17.40
2023-01-28T10:40:48.047Z,16.98
2023-01-28T10:42:50.301Z,15.70
2023-01-28T10:44:53.247Z,15.45
2023-01-28T10:46:57.989Z,15.35
2023-01-28T10:49:07.858Z,15.90
2023-01-28T10:51:10.088Z,16.00
2023-01-28T10:53:12.251Z,14.43
2023-01-28T10:55:15.069Z,13.40
2023-01-28T10:57:18.239Z,13.00
2023-01-28T10:59:30.853Z,13.93
2023-01-28T11:01:51.806Z,14.60
2023-01-28T11:03:57.249Z,13.55
2023-01-28T11:05:59.967Z,15.60
2023-01-28T11:08:05.394Z,13.70
2023-01-28T11:10:27.564Z,13.75
2023-01-28T11:12:31.073Z,13.97
2023-01-28T11:14:33.255Z,14.38
2023-01-28T11:16:35.491Z,16.15
2023-01-28T11:18:40.438Z,17.42
2023-01-28T11:20:45.548Z,16.77
2023-01-28T11:22:47.867Z,17.58
2023-01-28T11:24:50.437Z,16.55
2023-01-28T11:28:54.981Z,15.18
2023-01-28T11:30:59.122Z,14.82
2023-01-28T11:33:08.899Z,15.48
2023-01-28T11:35:25.099Z,14.65
2023-01-28T11:37:28.830Z,13.50
2023-01-28T11:39:31.176Z,15.63
2023-01-28T11:41:34.513Z,15.40
2023-01-28T11:43:36.734Z,16.33
2023-01-28T11:45:41.888Z,15.77
2023-01-28T11:48:19.827Z,15.00
2023-01-28T11:50:27.566Z,14.85
2023-01-28T11:53:02.583Z,14.90
2023-01-28T11:55:16.113Z,14.00
2023-01-28T11:57:27.230Z,14.13
2023-01-28T11:59:38.303Z,14.85
2023-01-28T12:01:52.676Z,14.50
2023-01-28T12:04:02.874Z,13.45
2023-01-28T12:06:11.053Z,13.23
2023-01-28T12:08:19.585Z,14.73
2023-01-28T12:10:25.000Z,13.93
2023-01-28T12:12:39.373Z,14.05
2023-01-28T12:14:56.538Z,14.32
2023-01-28T12:17:05.484Z,13.23
2023-01-28T12:19:26.060Z,13.60
2023-01-28T12:21:32.932Z,14.05
2023-01-28T12:23:44.490Z,14.30
2023-01-28T12:25:58.779Z,15.18
2023-01-28T12:28:18.972Z,14.65
2023-01-28T12:30:40.156Z,14.48
2023-01-28T12:32:42.391Z,16.23
2023-01-28T12:34:59.928Z,15.93
2023-01-28T12:37:08.150Z,14.55
2023-01-28T12:39:24.301Z,14.82
2023-01-28T12:41:29.010Z,13.77
2023-01-28T12:43:43.304Z,13.85
2023-01-28T12:45:52.204Z,14.70
2023-01-28T12:47:56.629Z,13.75
2023-01-28T12:50:01.368Z,13.45
2023-01-28T12:52:39.846Z,13.80
2023-01-28T12:55:05.015Z,13.45
2023-01-28T12:57:09.450Z,14.20
2023-01-28T12:59:26.581Z,14.93
2023-01-28T13:01:47.776Z,15.85
2023-01-28T13:04:10.286Z,15.10
2023-01-28T13:06:19.277Z,13.73
2023-01-28T13:08:25.353Z,13.98
2023-01-28T13:10:37.172Z,14.02
2023-01-28T13:12:42.694Z,14.18
2023-01-28T13:14:45.326Z,14.15
2023-01-28T13:18:49.727Z,14.07
2023-01-28T13:20:54.873Z,13.63
2023-01-28T13:23:02.143Z,14.85
2023-01-28T13:25:27.877Z,14.10
2023-01-28T13:27:30.138Z,14.25
2023-01-28T13:29:33.456Z,12.85
2023-01-28T13:31:43.271Z,13.63
2023-01-28T13:34:04.752Z,13.45
2023-01-28T13:36:20.359Z,13.02
2023-01-28T13:38:22.685Z,14.65
2023-01-28T13:40:26.773Z,14.60
2023-01-28T13:42:30.374Z,14.63
2023-01-28T13:44:34.100Z,14.80
2023-01-28T13:46:36.299Z,13.15
2023-01-28T13:48:42.266Z,13.65
2023-01-28T13:50:45.109Z,15.50
2023-01-28T13:52:53.531Z,14.80
2023-01-28T13:54:55.680Z,14.13
2023-01-28T13:57:01.039Z,15.30
2023-01-28T13:59:21.757Z,14.93
2023-01-28T14:01:47.402Z,13.93
2023-01-28T14:03:52.641Z,14.30
2023-01-28T14:05:54.849Z,14.32
2023-01-28T14:08:15.736Z,15.90
2023-01-28T14:10:18.229Z,13.48
2023-01-28T14:12:20.595Z,13.27
2023-01-28T14:14:41.290Z,14.45
2023-01-28T14:16:43.420Z,14.88
2023-01-28T14:18:46.626Z,15.00
2023-01-28T14:20:49.393Z,16.25
2023-01-28T14:22:52.970Z,18.50
2023-01-28T14:24:55.938Z,17.30
2023-01-28T14:27:16.664Z,14.88
2023-01-28T14:29:27.698Z,14.98
2023-01-28T14:31:34.070Z,14.05
2023-01-28T14:33:37.069Z,14.05
2023-01-28T14:35:40.674Z,15.05
2023-01-28T14:37:42.906Z,14.30
2023-01-28T14:39:49.818Z,13.32
2023-01-28T14:41:53.120Z,13.18
2023-01-28T14:43:56.180Z,12.77
2023-01-28T14:46:01.848Z,12.82
2023-01-28T14:48:05.171Z,12.48
2023-01-28T14:50:07.355Z,13.63
2023-01-28T14:52:12.186Z,14.07
2023-01-28T14:54:19.546Z,12.55
2023-01-28T14:56:27.518Z,12.65
2023-01-28T14:58:34.179Z,12.55
2023-01-28T15:00:36.619Z,12.70
2023-01-28T15:02:44.587Z,12.43
2023-01-28T15:04:46.853Z,12.38
2023-01-28T15:06:49.629Z,11.80
2023-01-28T15:08:52.437Z,12.70
2023-01-28T15:10:54.842Z,12.10
2023-01-28T15:12:59.305Z,11.52
2023-01-28T15:15:09.220Z,11.68
2023-01-28T15:17:21.233Z,11.90
2023-01-28T15:19:28.521Z,12.50
2023-01-28T15:21:31.040Z,12.43
2023-01-28T15:25:35.344Z,12.07
2023-01-28T15:27:37.543Z,12.93
2023-01-28T15:29:39.798Z,12.70
2023-01-28T15:31:49.441Z,12.40
2023-01-28T15:34:02.659Z,13.65
2023-01-28T15:36:06.183Z,13.25
2023-01-28T15:38:10.194Z,12.70
2023-01-28T15:40:18.673Z,14.00
2023-01-28T15:42:22.707Z,13.50
2023-01-28T15:44:30.315Z,14.13
2023-01-28T15:46:32.582Z,14.32
2023-01-28T15:48:35.736Z,15.15
2023-01-28T15:50:38.440Z,14.98
2023-01-28T15:52:41.962Z,14.73
2023-01-28T15:54:46.421Z,15.15
2023-01-28T15:56:48.655Z,15.00
2023-01-28T15:58:50.932Z,15.77
2023-01-28T16:01:02.655Z,15.65
2023-01-28T16:03:09.259Z,15.27
2023-01-28T16:05:25.686Z,16.05
2023-01-28T16:07:29.033Z,14.95
2023-01-28T16:09:32.669Z,16.65
2023-01-28T16:11:38.497Z,16.95
2023-01-28T16:13:44.937Z,16.98
2023-01-28T16:15:48.046Z,16.08
2023-01-28T16:17:51.975Z,14.90
2023-01-28T16:20:17.359Z,16.40
2023-01-28T16:22:20.881Z,15.18
2023-01-28T16:24:27.344Z,16.05
2023-01-28T16:26:30.612Z,15.65
2023-01-28T16:28:33.208Z,16.42
2023-01-28T16:32:38.889Z,14.88
2023-01-28T16:34:42.325Z,15.77
2023-01-28T16:36:44.534Z,17.10
2023-01-28T16:38:47.024Z,17.88
2023-01-28T16:40:49.522Z,17.13
2023-01-28T16:44:54.010Z,16.80
2023-01-28T16:46:56.492Z,16.85
2023-01-28T16:48:58.668Z,17.05
2023-01-28T16:51:00.845Z,15.65
2023-01-28T16:53:04.026Z,16.55
2023-01-28T16:55:06.338Z,17.48
2023-01-28T16:57:09.892Z,15.77
2023-01-28T16:59:12.264Z,17.73
2023-01-28T17:01:14.440Z,17.20
2023-01-28T17:03:16.611Z,16.45
2023-01-28T17:05:19.962Z,17.85
2023-01-28T17:07:22.191Z,18.20
2023-01-28T17:09:24.519Z,18.75
2023-01-28T17:11:29.625Z,19.15
2023-01-28T17:13:31.760Z,17.63
2023-01-28T17:15:35.647Z,18.27
2023-01-28T17:17:37.791Z,17.30
2023-01-28T17:19:40.058Z,17.10
2023-01-28T17:21:42.240Z,18.77
2023-01-28T17:23:44.450Z,17.08
2023-01-28T17:25:46.658Z,16.65
2023-01-28T17:27:51.845Z,16.45
2023-01-28T17:29:54.082Z,15.63
2023-01-28T17:31:56.589Z,15.75
2023-01-28T17:36:03.891Z,16.08
2023-01-28T17:38:06.085Z,14.85
2023-01-28T17:40:08.859Z,16.38
2023-01-28T17:42:11.033Z,15.65
2023-01-28T17:44:14.996Z,15.50
2023-01-28T17:48:19.342Z,15.13
2023-01-28T17:50:21.539Z,15.68
2023-01-28T17:52:23.989Z,16.27
2023-01-28T17:56:29.731Z,15.05
2023-01-28T17:58:31.915Z,16.02
2023-01-28T18:00:34.098Z,16.48
2023-01-28T18:02:36.328Z,17.02
2023-01-28T18:04:39.505Z,16.75
2023-01-28T18:06:41.757Z,16.42
2023-01-28T18:08:44.179Z,16.27
2023-01-28T18:10:46.363Z,16.48
2023-01-28T18:12:48.817Z,17.02
2023-01-28T18:16:53.106Z,15.93
2023-01-28T18:18:55.249Z,15.45
2023-01-28T18:20:58.336Z,16.75
2023-01-28T18:23:00.620Z,15.63
2023-01-28T18:25:02.889Z,14.95
2023-01-28T18:27:05.361Z,15.85
2023-01-28T18:31:09.837Z,15.65
2023-01-28T18:33:12.062Z,15.85
2023-01-28T18:35:14.884Z,17.25
2023-01-28T18:37:17.343Z,17.88
2023-01-28T18:39:20.254Z,18.45
2023-01-28T18:41:22.447Z,18.70
2023-01-28T18:43:24.716Z,19.45
2023-01-28T18:45:26.927Z,20.80
2023-01-28T18:47:29.183Z,21.30
2023-01-28T18:49:31.405Z,21.02
2023-01-28T18:51:33.707Z,22.33
2023-01-28T18:53:36.198Z,23.75
2023-01-28T18:55:38.355Z,21.50
2023-01-28T18:57:40.503Z,20.88
2023-01-28T18:59:42.752Z,20.13
2023-01-28T19:01:47.734Z,19.38
2023-01-28T19:03:50.138Z,19.10
2023-01-28T19:05:52.407Z,20.05
2023-01-28T19:07:54.635Z,19.45
2023-01-28T19:09:56.827Z,20.23
2023-01-28T19:11:59.319Z,20.10
2023-01-28T19:16:04.388Z,17.23
2023-01-28T19:18:06.665Z,17.25
2023-01-28T19:20:09.188Z,17.30
2023-01-28T19:24:14.228Z,17.20
2023-01-28T19:26:21.144Z,16.80
2023-01-28T19:28:23.632Z,17.25
2023-01-28T19:30:25.846Z,18.35
2023-01-28T19:32:28.127Z,17.58
2023-01-28T19:34:31.461Z,17.33
2023-01-28T19:36:34.858Z,17.50
2023-01-28T19:38:38.198Z,18.98
2023-01-28T19:40:42.496Z,17.67
2023-01-28T19:42:45.576Z,19.00
2023-01-28T19:44:47.714Z,19.15
2023-01-28T19:46:49.966Z,18.52
2023-01-28T19:48:52.287Z,20.08
2023-01-28T19:50:54.612Z,19.55
2023-01-28T19:52:56.815Z,19.63
2023-01-28T19:54:59.037Z,20.38
2023-01-28T19:57:01.239Z,20.17
2023-01-28T19:59:03.719Z,20.20
2023-01-28T20:03:08.627Z,12.98
2023-01-28T20:05:10.934Z,20.67
2023-01-28T20:07:13.156Z,19.38
2023-01-28T20:09:16.592Z,20.55
2023-01-28T20:11:18.833Z,19.95
2023-01-28T20:13:21.064Z,19.50
2023-01-28T20:15:23.259Z,18.55
2023-01-28T20:17:28.582Z,19.67
2023-01-28T20:19:30.898Z,18.17
2023-01-28T20:21:33.569Z,18.42
2023-01-28T20:23:35.975Z,20.35
2023-01-28T20:25:38.196Z,20.10
2023-01-28T20:27:40.532Z,20.15
2023-01-28T20:29:42.732Z,19.17
2023-01-28T20:31:45.073Z,19.90
2023-01-28T20:33:47.362Z,17.88
2023-01-28T20:35:49.755Z,18.00
2023-01-28T20:37:51.978Z,17.98
2023-01-28T20:39:54.134Z,18.73
2023-01-28T20:41:56.294Z,18.10
2023-01-28T20:43:58.564Z,18.15
2023-01-28T20:46:05.071Z,17.58
2023-01-28T20:48:07.548Z,17.45
2023-01-28T20:52:11.887Z,17.38
2023-01-28T20:54:17.602Z,17.55
2023-01-28T20:56:20.891Z,18.40
2023-01-28T20:58:23.011Z,20.55
2023-01-28T21:00:25.238Z,20.17
2023-01-28T21:02:27.406Z,19.65
2023-01-28T21:04:29.646Z,20.95
2023-01-28T21:06:31.886Z,19.58
2023-01-28T21:08:34.080Z,19.35
2023-01-28T21:10:36.956Z,18.58
2023-01-28T21:12:39.202Z,19.48
2023-01-28T21:14:41.360Z,19.63
2023-01-28T21:16:44.722Z,19.60
2023-01-28T21:18:47.141Z,19.40
2023-01-28T21:20:49.309Z,19.80
2023-01-28T21:22:55.052Z,19.35
2023-01-28T21:24:57.301Z,20.05
2023-01-28T21:26:59.503Z,18.45
2023-01-28T21:29:01.707Z,19.25
2023-01-28T21:31:15.395Z,20.40
2023-01-28T21:33:17.582Z,19.35
2023-01-28T21:35:19.784Z,20.00
2023-01-28T21:37:22.527Z,19.42
2023-01-28T21:39:24.761Z,20.20
2023-01-28T21:41:27.724Z,19.88
2023-01-28T21:43:30.172Z,19.42
2023-01-28T21:45:32.466Z,20.30
2023-01-28T21:47:34.832Z,19.63
2023-01-28T21:49:37.020Z,19.23
2023-01-28T21:51:39.706Z,19.75
2023-01-28T21:53:42.866Z,19.40
2023-01-28T21:55:48.881Z,19.50
2023-01-28T21:58:11.274Z,21.00
2023-01-28T22:00:13.705Z,19.70
2023-01-28T22:02:16.175Z,20.23
2023-01-28T22:04:18.414Z,21.08
2023-01-28T22:06:20.561Z,20.20
2023-01-28T22:08:22.709Z,21.55
2023-01-28T22:10:24.934Z,20.48
2023-01-28T22:12:28.179Z,21.30
2023-01-28T22:14:30.663Z,20.65
2023-01-28T22:16:32.919Z,20.48
2023-01-28T22:18:35.067Z,20.27
2023-01-28T22:20:37.265Z,19.80
2023-01-28T22:22:39.474Z,19.02
2023-01-28T22:24:41.895Z,20.23
2023-01-28T22:26:44.669Z,19.50
2023-01-28T22:28:46.905Z,19.70
2023-01-28T22:30:49.099Z,19.90
2023-01-28T22:32:51.358Z,19.67
2023-01-28T22:34:53.540Z,21.20
2023-01-28T22:36:55.691Z,19.42
2023-01-28T22:38:57.879Z,19.83
2023-01-28T22:41:09.953Z,20.77
2023-01-28T22:43:12.097Z,19.50
2023-01-28T22:45:14.270Z,19.88
2023-01-28T22:47:16.495Z,19.42
2023-01-28T22:49:19.304Z,19.20
2023-01-28T22:51:23.326Z,20.75
2023-01-28T22:53:25.572Z,20.27
2023-01-28T22:55:27.806Z,20.15
2023-01-28T22:57:29.970Z,21.80
2023-01-28T22:59:32.483Z,22.55
2023-01-28T23:03:38.045Z,21.08
2023-01-28T23:05:40.334Z,20.55
2023-01-28T23:07:42.763Z,20.83
2023-01-28T23:09:44.911Z,20.58
2023-01-28T23:11:47.146Z,19.48
2023-01-28T23:14:08.207Z,20.23
2023-01-28T23:16:29.096Z,20.05
2023-01-28T23:18:50.043Z,19.67
2023-01-28T23:21:10.973Z,21.67
2023-01-28T23:23:36.293Z,23.15
2023-01-28T23:25:38.476Z,21.58
2023-01-28T23:27:41.081Z,21.25
2023-01-28T23:31:46.897Z,19.80
2023-01-28T23:33:49.260Z,19.83
2023-01-28T23:35:51.555Z,19.60
2023-01-28T23:37:54.335Z,19.65
2023-01-28T23:39:56.487Z,16.15
2023-01-28T23:41:58.731Z,17.92
2023-01-28T23:44:00.920Z,18.45
2023-01-28T23:46:03.065Z,19.05
2023-01-28T23:48:05.256Z,18.38
2023-01-28T23:50:07.558Z,18.60
2023-01-28T23:52:09.918Z,18.75
2023-01-28T23:54:12.138Z,19.40
2023-01-28T23:56:14.271Z,19.67
2023-01-28T23:58:19.992Z,19.52
